createdAt,value
2023-05-13T00:01:19.780Z,14.48
2023-05-13T00:03:48.327Z,14.25
2023-05-13T00:06:16.395Z,14.88
2023-05-13T00:08:44.562Z,12.70
2023-05-13T00:11:13.811Z,14.48
2023-05-13T00:13:41.977Z,11.75
2023-05-13T00:16:09.896Z,13.23
2023-05-13T00:18:38.159Z,11.75
2023-05-13T00:21:06.182Z,15.25
2023-05-13T00:23:34.322Z,16.13
2023-05-13T00:26:02.606Z,13.50
2023-05-13T00:28:32.221Z,16.85
2023-05-13T00:31:00.123Z,20.45
2023-05-13T00:33:28.366Z,13.30
2023-05-13T00:35:56.312Z,15.02
2023-05-13T00:38:24.462Z,12.65
2023-05-13T00:40:52.395Z,14.25
2023-05-13T00:43:20.631Z,16.88
2023-05-13T00:45:50.086Z,9.57
2023-05-13T00:48:18.690Z,12.82
2023-05-13T00:50:46.641Z,21.58
2023-05-13T00:53:15.102Z,17.40
2023-05-13T00:55:44.033Z,13.75
2023-05-13T00:58:12.536Z,12.18
2023-05-13T01:03:52.030Z,16.05
2023-05-13T01:06:25.085Z,14.40
2023-05-13T01:08:58.249Z,17.00
2023-05-13T01:11:29.213Z,12.40
2023-05-13T01:14:02.750Z,16.17
2023-05-13T01:16:32.859Z,25.65
2023-05-13T01:19:06.236Z,11.27
2023-05-13T01:21:37.434Z,12.27
2023-05-13T01:24:05.874Z,16.52
2023-05-13T01:26:34.051Z,16.73
2023-05-13T01:29:02.101Z,17.38
2023-05-13T01:31:30.999Z,24.58
2023-05-13T01:33:59.308Z,20.73
2023-05-13T01:36:27.467Z,23.10
2023-05-13T01:38:57.477Z,16.40
2023-05-13T01:41:26.485Z,21.02
2023-05-13T01:43:54.353Z,20.98
2023-05-13T01:46:22.555Z,16.38
2023-05-13T01:48:50.614Z,19.50
2023-05-13T01:51:18.950Z,19.77
2023-05-13T01:53:46.824Z,19.30
2023-05-13T01:56:16.336Z,21.05
2023-05-13T01:58:44.240Z,19.42
2023-05-13T02:01:12.361Z,21.17
2023-05-13T02:03:40.320Z,19.38
2023-05-13T02:06:08.892Z,23.00
2023-05-13T02:08:36.777Z,20.67
2023-05-13T02:11:04.911Z,17.50
2023-05-13T02:13:34.122Z,20.50
2023-05-13T02:16:02.308Z,19.20
2023-05-13T02:18:30.390Z,17.08
2023-05-13T02:20:58.565Z,14.32
2023-05-13T02:23:26.560Z,14.88
2023-05-13T02:25:55.026Z,18.27
2023-05-13T02:28:22.938Z,13.32
2023-05-13T02:30:52.453Z,14.15
2023-05-13T02:33:20.344Z,15.73
2023-05-13T02:35:48.457Z,18.40
2023-05-13T02:38:16.422Z,16.45
2023-05-13T02:40:44.811Z,15.93
2023-05-13T02:43:12.712Z,18.70
2023-05-13T02:45:41.961Z,15.45
2023-05-13T02:48:11.894Z,18.98
2023-05-13T02:50:40.970Z,13.95
2023-05-13T02:53:08.860Z,19.23
2023-05-13T02:55:37.148Z,18.15
2023-05-13T02:58:05.416Z,17.08
2023-05-13T03:00:33.547Z,16.60
2023-05-13T03:03:01.460Z,13.18
2023-05-13T03:05:31.011Z,19.08
2023-05-13T03:07:58.872Z,17.80
2023-05-13T03:10:26.998Z,16.25
2023-05-13T03:12:54.939Z,13.80
2023-05-13T03:15:23.697Z,18.60
2023-05-13T03:17:51.665Z,17.27
2023-05-13T03:20:20.144Z,15.50
2023-05-13T03:22:49.637Z,16.65
2023-05-13T03:25:17.909Z,17.02
2023-05-13T03:27:46.105Z,19.75
2023-05-13T03:30:14.982Z,15.48
2023-05-13T03:32:42.930Z,12.52
2023-05-13T03:35:11.096Z,13.18
2023-05-13T03:37:38.987Z,14.57
2023-05-13T03:40:09.981Z,17.80
2023-05-13T03:42:37.852Z,19.65
2023-05-13T03:45:07.082Z,19.88
2023-05-13T03:47:35.240Z,14.68
2023-05-13T03:50:03.466Z,18.08
2023-05-13T03:52:31.330Z,22.80
2023-05-13T03:54:59.649Z,18.00
2023-05-13T03:57:28.859Z,14.68
2023-05-13T03:59:57.096Z,17.40
2023-05-13T04:02:25.188Z,16.02
2023-05-13T04:04:53.366Z,19.30
2023-05-13T04:07:21.290Z,14.88
2023-05-13T04:09:49.421Z,16.23
2023-05-13T04:12:18.122Z,18.77
2023-05-13T04:14:47.717Z,16.90
2023-05-13T04:17:15.600Z,15.35
2023-05-13T04:19:43.721Z,17.85
2023-05-13T04:22:11.594Z,18.92
2023-05-13T04:24:39.741Z,16.20
2023-05-13T04:27:07.643Z,15.15
2023-05-13T04:29:35.796Z,25.95
2023-05-13T04:32:05.695Z,14.93
2023-05-13T04:34:33.879Z,20.50
2023-05-13T04:37:01.781Z,13.00
2023-05-13T04:39:30.391Z,20.10
2023-05-13T04:41:58.265Z,19.17
2023-05-13T04:44:26.162Z,16.63
2023-05-13T04:46:54.409Z,20.83
2023-05-13T04:49:23.795Z,16.52
2023-05-13T04:51:52.345Z,19.05
2023-05-13T04:54:20.725Z,18.38
2023-05-13T04:56:48.863Z,17.38
2023-05-13T04:59:16.939Z,16.83
2023-05-13T05:01:45.312Z,12.80
2023-05-13T05:04:13.584Z,21.67
2023-05-13T05:06:43.124Z,16.10
2023-05-13T05:09:11.010Z,19.60
2023-05-13T05:11:39.413Z,13.48
2023-05-13T05:14:07.428Z,12.77
2023-05-13T05:16:35.649Z,16.60
2023-05-13T05:19:03.602Z,15.55
2023-05-13T05:21:31.897Z,30.77
2023-05-13T05:24:01.869Z,17.17
2023-05-13T05:26:30.170Z,12.07
2023-05-13T05:28:58.033Z,9.50
2023-05-13T05:31:27.712Z,12.15
2023-05-13T05:33:56.574Z,14.50
2023-05-13T05:36:24.887Z,14.55
2023-05-13T05:38:52.780Z,11.77
2023-05-13T05:41:22.801Z,8.35
2023-05-13T05:43:50.950Z,14.65
2023-05-13T05:46:19.206Z,10.45
2023-05-13T05:48:47.203Z,11.65
2023-05-13T05:51:15.483Z,10.15
2023-05-13T05:53:43.373Z,10.23
2023-05-13T05:56:11.538Z,14.45
2023-05-13T05:58:40.841Z,11.52
2023-05-13T06:01:08.950Z,13.07
2023-05-13T06:03:36.992Z,11.63
2023-05-13T06:06:05.633Z,8.38
2023-05-13T06:08:33.523Z,11.13
2023-05-13T06:11:01.909Z,11.77
2023-05-13T06:13:30.156Z,9.85
2023-05-13T06:15:59.683Z,13.20
2023-05-13T06:18:27.668Z,12.25
2023-05-13T06:20:55.975Z,13.07
2023-05-13T06:23:23.852Z,11.18
2023-05-13T06:25:52.071Z,10.40
2023-05-13T06:28:20.033Z,12.52
2023-05-13T06:30:48.178Z,8.35
2023-05-13T06:33:17.445Z,14.98
2023-05-13T06:35:48.085Z,7.70
2023-05-13T06:38:17.665Z,12.27
2023-05-13T06:40:46.174Z,8.95
2023-05-13T06:43:14.613Z,10.38
2023-05-13T06:45:42.902Z,8.25
2023-05-13T06:48:11.149Z,11.57
2023-05-13T06:50:40.962Z,7.85
2023-05-13T06:53:11.196Z,7.07
2023-05-13T06:55:41.607Z,6.97
2023-05-13T06:58:09.993Z,10.07
2023-05-13T07:00:38.634Z,7.10
2023-05-13T07:03:07.013Z,5.68
2023-05-13T07:05:36.211Z,4.82
2023-05-13T07:08:08.317Z,7.72
2023-05-13T07:10:37.385Z,7.20
2023-05-13T07:13:05.399Z,4.00
2023-05-13T07:15:34.133Z,7.20
2023-05-13T07:18:02.030Z,6.40
2023-05-13T07:20:30.459Z,4.70
2023-05-13T07:22:58.638Z,2.47
2023-05-13T07:25:28.428Z,5.45
2023-05-13T07:27:56.411Z,5.18
2023-05-13T07:30:25.010Z,7.25
2023-05-13T07:32:54.148Z,3.85
2023-05-13T07:35:22.673Z,32.72
2023-05-13T07:37:50.788Z,10.40
2023-05-13T07:40:20.888Z,4.70
2023-05-13T07:42:50.490Z,7.93
2023-05-13T07:45:19.162Z,6.82
2023-05-13T07:47:47.382Z,10.07
2023-05-13T07:50:15.512Z,9.45
2023-05-13T07:52:43.587Z,6.20
2023-05-13T07:55:11.928Z,5.40
2023-05-13T07:57:39.788Z,2.75
2023-05-13T08:00:10.857Z,3.92
2023-05-13T08:02:39.574Z,5.35
2023-05-13T08:05:08.380Z,4.70
2023-05-13T08:07:36.264Z,4.95
2023-05-13T08:10:04.872Z,7.03
2023-05-13T08:12:32.773Z,5.97
2023-05-13T08:15:03.752Z,11.40
2023-05-13T08:17:33.537Z,3.55
2023-05-13T08:20:03.758Z,9.65
2023-05-13T08:22:31.893Z,3.88
2023-05-13T08:25:01.096Z,3.58
2023-05-13T08:27:29.153Z,3.83
2023-05-13T08:29:57.442Z,4.03
2023-05-13T08:32:25.533Z,3.30
2023-05-13T08:34:55.049Z,5.60
2023-05-13T08:37:22.949Z,5.75
2023-05-13T08:39:51.089Z,8.82
2023-05-13T08:42:21.641Z,3.17
2023-05-13T08:44:50.480Z,3.42
2023-05-13T08:47:25.330Z,7.88
2023-05-13T08:49:54.947Z,3.78
2023-05-13T08:52:24.072Z,5.38
2023-05-13T08:54:52.197Z,11.48
2023-05-13T08:57:20.043Z,3.13
2023-05-13T08:59:48.216Z,5.13
2023-05-13T09:02:16.218Z,5.50
2023-05-13T09:04:44.590Z,3.92
2023-05-13T09:07:13.816Z,7.80
2023-05-13T09:09:42.054Z,8.23
2023-05-13T09:12:10.525Z,4.22
2023-05-13T09:14:39.928Z,3.80
2023-05-13T09:17:08.253Z,10.70
2023-05-13T09:19:36.958Z,5.25
2023-05-13T09:22:04.929Z,3.13
2023-05-13T09:24:34.395Z,4.85
2023-05-13T09:27:02.243Z,4.28
2023-05-13T09:29:30.595Z,5.28
2023-05-13T09:31:59.506Z,8.77
2023-05-13T09:34:29.652Z,7.72
2023-05-13T09:37:02.130Z,2.75
2023-05-13T09:39:32.275Z,3.40
2023-05-13T09:42:05.105Z,8.20
2023-05-13T09:47:03.141Z,5.80
2023-05-13T09:49:32.705Z,8.45
2023-05-13T09:52:00.588Z,3.63
2023-05-13T09:54:35.533Z,7.22
2023-05-13T09:57:06.942Z,7.85
2023-05-13T09:59:35.279Z,2.40
2023-05-13T10:02:06.527Z,4.85
2023-05-13T10:04:35.308Z,2.70
2023-05-13T10:07:04.988Z,2.85
2023-05-13T10:09:39.297Z,2.33
2023-05-13T10:12:09.803Z,9.57
2023-05-13T10:14:38.762Z,7.55
2023-05-13T10:17:07.723Z,4.95
2023-05-13T10:19:36.605Z,2.47
2023-05-13T10:22:04.854Z,6.20
2023-05-13T10:24:33.256Z,3.22
2023-05-13T10:27:02.831Z,4.05
2023-05-13T10:29:32.591Z,4.00
2023-05-13T10:32:01.023Z,8.38
2023-05-13T10:34:31.328Z,3.65
2023-05-13T10:37:10.740Z,5.43
2023-05-13T10:40:03.951Z,10.88
2023-05-13T10:42:39.513Z,6.85
2023-05-13T10:45:10.240Z,4.57
2023-05-13T10:47:39.023Z,7.80
2023-05-13T10:50:08.556Z,5.78
2023-05-13T10:52:44.325Z,4.05
2023-05-13T10:55:22.650Z,2.50
2023-05-13T10:58:08.679Z,5.00
2023-05-13T11:00:39.168Z,6.00
2023-05-13T11:03:11.788Z,8.70
2023-05-13T11:05:41.914Z,3.33
2023-05-13T11:08:09.958Z,5.40
2023-05-13T11:10:38.102Z,4.93
2023-05-13T11:13:24.527Z,4.75
2023-05-13T11:15:55.779Z,5.15
2023-05-13T11:18:31.155Z,3.72
2023-05-13T11:21:05.406Z,6.55
2023-05-13T11:23:35.449Z,10.07
2023-05-13T11:26:16.117Z,5.85
2023-05-13T11:29:00.920Z,4.75
2023-05-13T11:31:45.451Z,4.40
2023-05-13T11:34:15.375Z,3.85
2023-05-13T11:36:45.821Z,7.55
2023-05-13T11:39:16.005Z,2.40
2023-05-13T11:41:46.051Z,6.25
2023-05-13T11:44:15.483Z,6.18
2023-05-13T11:46:56.714Z,9.45
2023-05-13T11:49:34.742Z,3.13
2023-05-13T11:52:04.036Z,4.93
2023-05-13T11:54:31.960Z,5.32
2023-05-13T11:57:00.206Z,10.23
2023-05-13T11:59:33.249Z,3.58
2023-05-13T12:02:05.759Z,3.35
2023-05-13T12:04:33.730Z,12.20
2023-05-13T12:07:01.941Z,7.15
2023-05-13T12:09:29.818Z,6.28
2023-05-13T12:11:58.168Z,3.63
2023-05-13T12:14:27.837Z,4.40
2023-05-13T12:16:57.231Z,5.32
2023-05-13T12:19:26.498Z,5.25
2023-05-13T12:21:54.882Z,7.60
2023-05-13T12:24:23.379Z,7.90
2023-05-13T12:26:51.577Z,9.50
2023-05-13T12:29:19.695Z,4.20
2023-05-13T12:32:06.552Z,3.50
2023-05-13T12:34:36.588Z,5.93
2023-05-13T12:37:12.402Z,8.70
2023-05-13T12:39:41.461Z,5.07
2023-05-13T12:42:15.895Z,5.53
2023-05-13T12:44:45.283Z,2.78
2023-05-13T12:47:19.230Z,2.53
2023-05-13T12:49:55.180Z,2.83
2023-05-13T12:52:23.648Z,3.40
2023-05-13T12:54:51.741Z,8.40
2023-05-13T12:57:20.512Z,4.32
2023-05-13T12:59:48.445Z,4.38
2023-05-13T13:02:16.592Z,17.40
2023-05-13T13:04:44.458Z,9.38
2023-05-13T13:07:14.615Z,5.25
2023-05-13T13:09:42.662Z,5.00
2023-05-13T13:12:11.333Z,3.50
2023-05-13T13:14:39.191Z,4.03
2023-05-13T13:17:07.662Z,5.60
2023-05-13T13:19:35.505Z,4.53
2023-05-13T13:22:03.955Z,3.08
2023-05-13T13:24:33.264Z,5.22
2023-05-13T13:27:01.392Z,6.72
2023-05-13T13:29:29.265Z,7.13
2023-05-13T13:31:57.475Z,4.45
2023-05-13T13:34:25.342Z,3.85
2023-05-13T13:36:53.734Z,7.40
2023-05-13T13:39:22.064Z,3.95
2023-05-13T13:41:51.527Z,2.70
2023-05-13T13:44:19.396Z,4.13
2023-05-13T13:46:48.109Z,4.07
2023-05-13T13:49:23.269Z,5.10
2023-05-13T13:51:52.575Z,3.65
2023-05-13T13:54:20.917Z,5.85
2023-05-13T13:56:50.719Z,8.15
2023-05-13T13:59:19.759Z,6.60
2023-05-13T14:01:48.166Z,5.18
2023-05-13T14:04:17.175Z,4.60
2023-05-13T14:06:46.298Z,2.78
2023-05-13T14:09:14.203Z,3.90
2023-05-13T14:11:42.499Z,8.60
2023-05-13T14:14:12.061Z,4.60
2023-05-13T14:16:40.200Z,3.53
2023-05-13T14:19:08.349Z,5.35
2023-05-13T14:21:36.627Z,7.20
2023-05-13T14:24:04.859Z,10.13
2023-05-13T14:26:33.097Z,4.65
2023-05-13T14:29:00.970Z,7.20
2023-05-13T14:31:30.941Z,3.05
2023-05-13T14:33:58.904Z,6.40
2023-05-13T14:36:27.509Z,3.78
2023-05-13T14:38:55.613Z,6.50
2023-05-13T14:41:24.151Z,5.30
2023-05-13T14:43:52.129Z,6.25
2023-05-13T14:46:20.288Z,4.57
2023-05-13T14:48:49.579Z,7.57
2023-05-13T14:51:17.841Z,7.25
2023-05-13T14:53:45.690Z,6.47
2023-05-13T14:56:14.150Z,4.40
2023-05-13T14:58:42.328Z,6.20
2023-05-13T15:01:10.691Z,4.43
2023-05-13T15:03:38.802Z,5.00
2023-05-13T15:06:09.041Z,5.43
2023-05-13T15:08:37.644Z,9.65
2023-05-13T15:11:07.123Z,6.82
2023-05-13T15:13:35.706Z,5.30
2023-05-13T15:16:04.283Z,7.35
2023-05-13T15:18:32.598Z,9.30
2023-05-13T15:21:00.768Z,5.93
2023-05-13T15:23:29.980Z,6.57
2023-05-13T15:25:58.176Z,6.47
2023-05-13T15:28:26.214Z,5.20
2023-05-13T15:30:54.362Z,6.25
2023-05-13T15:33:22.279Z,6.80
2023-05-13T15:35:50.883Z,7.30
2023-05-13T15:38:18.920Z,7.15
2023-05-13T15:40:48.616Z,8.40
2023-05-13T15:43:16.692Z,7.10
2023-05-13T15:45:45.029Z,8.60
2023-05-13T15:48:13.143Z,9.90
2023-05-13T15:50:41.480Z,8.23
2023-05-13T15:53:09.354Z,10.45
2023-05-13T15:55:39.317Z,8.00
2023-05-13T15:58:08.849Z,7.70
2023-05-13T16:00:37.043Z,6.47
2023-05-13T16:03:05.053Z,6.32
2023-05-13T16:05:33.777Z,5.53
2023-05-13T16:08:01.665Z,7.13
2023-05-13T16:10:29.892Z,6.68
2023-05-13T16:12:58.116Z,7.28
2023-05-13T16:15:27.899Z,7.00
2023-05-13T16:17:55.830Z,5.28
2023-05-13T16:20:24.499Z,4.85
2023-05-13T16:22:52.628Z,5.75
2023-05-13T16:25:21.360Z,6.22
2023-05-13T16:27:50.087Z,7.13
2023-05-13T16:30:18.535Z,4.90
2023-05-13T16:32:52.980Z,7.28
2023-05-13T16:35:21.556Z,3.60
2023-05-13T16:40:52.472Z,3.70
2023-05-13T16:43:20.628Z,5.65
2023-05-13T16:45:49.533Z,4.10
2023-05-13T16:48:20.084Z,4.35
2023-05-13T16:50:48.062Z,2.58
2023-05-13T16:53:16.281Z,4.82
2023-05-13T16:55:44.316Z,3.60
2023-05-13T16:58:12.699Z,3.15
2023-05-13T17:00:40.711Z,3.67
2023-05-13T17:03:08.983Z,9.07
2023-05-13T17:05:38.330Z,4.38
2023-05-13T17:08:06.720Z,4.38
2023-05-13T17:10:34.713Z,4.25
2023-05-13T17:13:02.884Z,7.32
2023-05-13T17:15:30.765Z,6.93
2023-05-13T17:17:59.060Z,4.85
2023-05-13T17:20:27.086Z,6.00
2023-05-13T17:22:56.535Z,6.68
2023-05-13T17:25:24.377Z,7.50
2023-05-13T17:27:52.972Z,13.40
2023-05-13T17:30:20.998Z,7.53
2023-05-13T17:32:49.387Z,7.78
2023-05-13T17:35:17.374Z,19.80
2023-05-13T17:37:45.740Z,7.97
2023-05-13T17:40:15.229Z,7.50
2023-05-13T17:42:43.369Z,5.18
2023-05-13T17:45:11.794Z,5.93
2023-05-13T17:47:40.296Z,3.55
2023-05-13T17:50:08.850Z,4.38
2023-05-13T17:52:36.972Z,5.80
2023-05-13T17:55:06.042Z,5.22
2023-05-13T17:57:35.607Z,3.80
2023-05-13T18:00:06.487Z,4.00
2023-05-13T18:02:36.064Z,5.07
2023-05-13T18:05:04.070Z,5.70
2023-05-13T18:07:32.196Z,5.10
2023-05-13T18:10:00.624Z,7.32
2023-05-13T18:12:29.427Z,8.13
2023-05-13T18:14:58.701Z,12.07
2023-05-13T18:17:28.888Z,8.18
2023-05-13T18:19:56.765Z,6.95
2023-05-13T18:22:24.902Z,9.82
2023-05-13T18:24:52.750Z,10.68
2023-05-13T18:27:21.466Z,12.40
2023-05-13T18:29:49.304Z,7.68
2023-05-13T18:32:18.918Z,10.73
2023-05-13T18:34:46.776Z,15.85
2023-05-13T18:37:15.861Z,10.23
2023-05-13T18:39:45.773Z,11.68
2023-05-13T18:42:14.098Z,9.90
2023-05-13T18:44:42.000Z,9.30
2023-05-13T18:47:11.001Z,8.60
2023-05-13T18:49:40.205Z,10.13
2023-05-13T18:52:08.948Z,11.45
2023-05-13T18:54:37.662Z,15.95
2023-05-13T18:57:06.305Z,16.50
2023-05-13T18:59:34.348Z,15.38
2023-05-13T19:02:02.774Z,10.80
2023-05-13T19:04:31.042Z,10.50
2023-05-13T19:07:01.405Z,11.10
2023-05-13T19:09:29.310Z,12.35
2023-05-13T19:11:57.536Z,15.90
2023-05-13T19:14:25.405Z,16.15
2023-05-13T19:16:53.627Z,18.55
2023-05-13T19:19:21.565Z,18.17
2023-05-13T19:21:49.791Z,21.25
2023-05-13T19:24:19.021Z,13.80
2023-05-13T19:26:47.156Z,16.20
2023-05-13T19:29:15.229Z,16.77
2023-05-13T19:31:43.444Z,13.07
2023-05-13T19:34:11.830Z,9.95
2023-05-13T19:36:40.047Z,13.25
2023-05-13T19:39:08.263Z,15.98
2023-05-13T19:41:38.419Z,12.50
2023-05-13T19:44:07.172Z,13.40
2023-05-13T19:46:35.494Z,12.68
2023-05-13T19:49:03.613Z,16.95
2023-05-13T19:51:32.417Z,13.27
2023-05-13T19:54:00.277Z,19.60
2023-05-13T19:56:28.816Z,13.15
2023-05-13T19:58:58.134Z,14.82
2023-05-13T20:01:26.549Z,18.92
2023-05-13T20:03:55.250Z,14.43
2023-05-13T20:06:23.582Z,16.80
2023-05-13T20:08:51.463Z,14.20
2023-05-13T20:11:19.686Z,16.42
2023-05-13T20:13:47.681Z,15.65
2023-05-13T20:16:17.198Z,18.67
2023-05-13T20:18:45.151Z,17.90
2023-05-13T20:21:13.494Z,17.02
2023-05-13T20:23:41.546Z,17.02
2023-05-13T20:26:09.723Z,18.33
2023-05-13T20:28:37.997Z,16.30
2023-05-13T20:31:06.696Z,18.02
2023-05-13T20:33:35.947Z,18.73
2023-05-13T20:36:06.238Z,26.30
2023-05-13T20:38:34.145Z,21.15
2023-05-13T20:41:02.272Z,20.45
2023-05-13T20:43:32.185Z,21.65
2023-05-13T20:46:00.479Z,18.85
2023-05-13T20:48:31.780Z,21.75
2023-05-13T20:51:04.562Z,20.95
2023-05-13T20:53:33.238Z,28.15
2023-05-13T20:56:02.954Z,24.88
2023-05-13T20:58:30.967Z,17.58
2023-05-13T21:00:59.150Z,23.98
2023-05-13T21:03:27.250Z,22.60
2023-05-13T21:05:55.430Z,23.95
2023-05-13T21:08:24.628Z,23.88
2023-05-13T21:10:56.071Z,21.25
2023-05-13T21:13:25.865Z,23.40
2023-05-13T21:15:54.066Z,21.67
2023-05-13T21:18:22.256Z,20.77
2023-05-13T21:20:51.187Z,19.88
2023-05-13T21:23:20.438Z,26.27
2023-05-13T21:25:50.119Z,27.83
2023-05-13T21:28:18.265Z,23.02
2023-05-13T21:30:46.540Z,19.92
2023-05-13T21:33:14.527Z,28.98
2023-05-13T21:35:42.734Z,25.92
2023-05-13T21:38:12.285Z,24.48
2023-05-13T21:40:40.875Z,23.80
2023-05-13T21:43:10.718Z,27.83
2023-05-13T21:45:39.914Z,25.80
2023-05-13T21:48:08.054Z,22.33
2023-05-13T21:50:36.573Z,26.60
2023-05-13T21:53:04.909Z,23.83
2023-05-13T21:55:34.967Z,24.45
2023-05-13T21:58:03.083Z,26.85
2023-05-13T22:00:32.852Z,25.88
2023-05-13T22:03:01.495Z,26.40
2023-05-13T22:05:31.856Z,22.95
2023-05-13T22:08:01.721Z,28.13
2023-05-13T22:10:31.104Z,24.58
2023-05-13T22:12:58.982Z,23.33
2023-05-13T22:15:27.274Z,21.92
2023-05-13T22:17:56.587Z,25.70
2023-05-13T22:20:25.401Z,28.65
2023-05-13T22:22:53.545Z,29.48
2023-05-13T22:25:23.583Z,25.83
2023-05-13T22:27:52.129Z,28.30
2023-05-13T22:30:20.892Z,27.23
2023-05-13T22:32:50.345Z,27.40
2023-05-13T22:35:19.905Z,23.48
2023-05-13T22:37:47.890Z,25.75
2023-05-13T22:40:16.357Z,31.02
2023-05-13T22:42:44.209Z,25.38
2023-05-13T22:45:12.908Z,30.10
2023-05-13T22:47:40.854Z,30.60
2023-05-13T22:50:09.633Z,28.67
2023-05-13T22:52:38.886Z,27.83
2023-05-13T22:55:08.565Z,28.10
2023-05-13T22:57:36.440Z,28.77
2023-05-13T23:00:04.920Z,26.95
2023-05-13T23:02:32.876Z,35.33
2023-05-13T23:05:01.102Z,27.02
2023-05-13T23:07:29.009Z,28.42
2023-05-13T23:09:58.749Z,28.20
2023-05-13T23:12:26.777Z,29.48
2023-05-13T23:14:54.905Z,26.98
2023-05-13T23:17:22.793Z,30.27
2023-05-13T23:19:51.006Z,27.48
2023-05-13T23:22:18.877Z,25.40
2023-05-13T23:24:47.026Z,31.17
2023-05-13T23:27:16.288Z,29.08
2023-05-13T23:29:44.513Z,29.63
2023-05-13T23:32:12.543Z,26.40
2023-05-13T23:34:40.802Z,31.75
2023-05-13T23:37:08.688Z,27.75
2023-05-13T23:39:36.892Z,25.27
2023-05-13T23:42:05.041Z,24.95
2023-05-13T23:44:34.517Z,25.52
2023-05-13T23:47:02.376Z,27.75
2023-05-13T23:49:30.666Z,28.60
2023-05-13T23:51:58.516Z,26.50
2023-05-13T23:54:26.729Z,24.48
2023-05-13T23:56:54.607Z,23.73
2023-05-13T23:59:22.783Z,25.42
